Time;durP1;ratioP1;P1;durP2;ratioP2;P2;SDS_P1;SDS_P2;PMS_P1;PMS_P2;Temp;Humidity;BMP_temperature;BMP_pressure;BME280_temperature;BME280_humidity;BME280_pressure;Samples;Min_cycle;Max_cycle;Signal;HPM_P1;HPM_P2
2021/06/05 00:00:49;;;;;;;;;;;14.70;99.90;;;;;;8327554;28;19913;-64
2021/06/05 00:04:50;;;;;;;;;;;14.60;99.90;;;;;;8309560;28;20326;-64
2021/06/05 00:08:50;;;;;;;;;;;14.80;99.90;;;;;;8327120;28;20016;-64
2021/06/05 00:12:51;;;;;;;;;;;14.80;99.90;;;;;;8309702;28;19913;-64
2021/06/05 00:16:51;;;;;;;;;;;14.60;99.90;;;;;;8309419;28;19913;-64
2021/06/05 00:20:52;;;;;;;;;;;14.70;99.90;;;;;;8326454;28;19920;-64
2021/06/05 00:24:52;;;;;;;;;;;15.10;99.90;;;;;;8309281;28;19909;-64
2021/06/05 00:28:53;;;;;;;;;;;15.20;99.90;;;;;;8326685;28;19955;-64
2021/06/05 00:32:54;;;;;;;;;;;15.40;99.90;;;;;;8326741;28;19916;-64
2021/06/05 00:36:54;;;;;;;;;;;15.30;99.90;;;;;;8326400;28;19916;-64
2021/06/05 00:40:56;;;;;;;;;;;15.30;99.90;;;;;;8326001;28;19923;-64
2021/06/05 00:44:57;;;;;;;;;;;15.20;99.90;;;;;;8325347;28;19909;-64
2021/06/05 00:48:58;;;;;;;;;;;15.20;99.90;;;;;;8325830;28;19961;-64
2021/06/05 00:52:59;;;;;;;;;;;15.20;99.90;;;;;;8326112;28;19915;-64
2021/06/05 00:57:01;;;;;;;;;;;15.40;99.90;;;;;;8325000;28;19909;-64
2021/06/05 01:01:17;;;;;;;;;;;15.20;99.90;;;;;;8304140;28;19932;-64
2021/06/05 01:05:17;;;;;;;;;;;15.30;99.90;;;;;;8315614;28;19966;-64
2021/06/05 01:09:24;;;;;;;;;;;15.10;99.90;;;;;;8324855;28;20264;-64
2021/06/05 01:13:51;;;;;;;;;;;15.10;99.90;;;;;;8308064;28;20747;-64
2021/06/05 01:17:54;;;;;;;;;;;15.00;99.90;;;;;;8322335;28;19951;-64
2021/06/05 01:22:01;;;;;;;;;;;15.10;99.90;;;;;;8325044;28;19971;-64
2021/06/05 01:26:04;;;;;;;;;;;15.10;99.90;;;;;;8307566;28;20012;-64
2021/06/05 01:30:13;;;;;;;;;;;15.20;99.90;;;;;;8325082;28;20077;-64
2021/06/05 01:34:14;;;;;;;;;;;15.40;99.90;;;;;;8323689;28;20447;-64
2021/06/05 01:38:14;;;;;;;;;;;15.40;99.90;;;;;;8323980;28;19917;-64
2021/06/05 01:42:20;;;;;;;;;;;15.70;99.90;;;;;;8325447;28;20295;-64
2021/06/05 01:46:29;;;;;;;;;;;15.70;99.90;;;;;;8325436;28;20016;-64
2021/06/05 01:50:31;;;;;;;;;;;15.60;99.90;;;;;;8325333;28;19905;-64
2021/06/05 01:54:34;;;;;;;;;;;15.40;99.90;;;;;;8326660;28;20310;-64
2021/06/05 01:58:37;;;;;;;;;;;15.70;99.90;;;;;;8331126;28;20436;-65
2021/06/05 02:02:38;;;;;;;;;;;15.70;99.90;;;;;;8331339;28;19910;-64
2021/06/05 02:06:39;;;;;;;;;;;15.90;99.90;;;;;;8330561;28;19917;-64
2021/06/05 02:10:40;;;;;;;;;;;15.90;99.90;;;;;;8312007;28;20437;-64
2021/06/05 02:14:43;;;;;;;;;;;15.70;99.90;;;;;;8331025;28;19999;-64
2021/06/05 02:18:52;;;;;;;;;;;15.50;99.90;;;;;;8330370;28;19917;-64
2021/06/05 02:22:53;;;;;;;;;;;15.50;99.90;;;;;;8330564;28;19963;-64
2021/06/05 02:26:53;;;;;;;;;;;15.40;99.90;;;;;;8330372;28;19909;-64
2021/06/05 02:30:55;;;;;;;;;;;15.50;99.90;;;;;;8330191;28;20477;-65
2021/06/05 02:34:56;;;;;;;;;;;15.60;99.90;;;;;;8312245;28;19936;-64
2021/06/05 02:38:56;;;;;;;;;;;15.40;99.90;;;;;;8329770;28;19913;-64
2021/06/05 02:42:58;;;;;;;;;;;15.30;99.90;;;;;;8330144;28;19909;-64
2021/06/05 02:46:58;;;;;;;;;;;15.20;99.90;;;;;;8329951;28;20451;-64
2021/06/05 02:50:59;;;;;;;;;;;15.30;99.90;;;;;;8328044;28;19909;-64
2021/06/05 02:55:04;;;;;;;;;;;15.10;99.90;;;;;;8327956;28;19909;-64
2021/06/05 02:59:04;;;;;;;;;;;15.10;99.90;;;;;;8310604;28;20306;-65
2021/06/05 03:03:06;;;;;;;;;;;15.30;99.90;;;;;;8329679;28;19992;-64
2021/06/05 03:07:06;;;;;;;;;;;15.30;99.90;;;;;;8309882;28;19971;-64
2021/06/05 03:11:16;;;;;;;;;;;15.10;99.90;;;;;;8329063;28;19910;-64
2021/06/05 03:15:17;;;;;;;;;;;15.10;99.90;;;;;;8327928;28;19909;-64
2021/06/05 03:19:18;;;;;;;;;;;15.10;99.90;;;;;;8310163;28;19913;-64
2021/06/05 03:23:20;;;;;;;;;;;15.10;99.90;;;;;;8309929;28;19909;-64
2021/06/05 03:27:20;;;;;;;;;;;15.30;99.90;;;;;;8328736;28;19909;-64
2021/06/05 03:31:21;;;;;;;;;;;15.30;99.90;;;;;;8310817;28;19912;-64
2021/06/05 03:35:22;;;;;;;;;;;15.50;99.90;;;;;;8328305;28;19913;-64
2021/06/05 03:39:22;;;;;;;;;;;15.40;99.90;;;;;;8327415;28;19917;-64
2021/06/05 03:43:23;;;;;;;;;;;15.60;99.90;;;;;;8328250;28;19996;-64
2021/06/05 03:47:24;;;;;;;;;;;15.50;99.90;;;;;;8328185;28;19913;-64
2021/06/05 03:51:24;;;;;;;;;;;15.50;99.90;;;;;;8309762;28;19952;-64
2021/06/05 03:55:25;;;;;;;;;;;15.60;99.90;;;;;;8327687;28;19976;-64
2021/06/05 03:59:26;;;;;;;;;;;15.70;99.90;;;;;;8309632;28;19913;-64
2021/06/05 04:03:26;;;;;;;;;;;16.10;99.90;;;;;;8309770;28;19951;-64
2021/06/05 04:07:27;;;;;;;;;;;16.00;99.90;;;;;;8327034;28;19933;-64
2021/06/05 04:11:29;;;;;;;;;;;16.00;99.90;;;;;;8326617;28;20568;-64
2021/06/05 04:15:30;;;;;;;;;;;15.90;99.90;;;;;;8325851;28;20276;-64
2021/06/05 04:19:31;;;;;;;;;;;16.00;99.90;;;;;;8326483;28;20347;-64
2021/06/05 04:23:32;;;;;;;;;;;15.90;99.90;;;;;;8327010;28;19917;-64
2021/06/05 04:27:32;;;;;;;;;;;15.80;99.90;;;;;;8326909;28;19920;-64
2021/06/05 04:31:33;;;;;;;;;;;15.90;99.90;;;;;;8326486;28;19910;-64
2021/06/05 04:35:33;;;;;;;;;;;15.90;99.90;;;;;;8326324;28;19963;-64
2021/06/05 04:39:34;;;;;;;;;;;16.10;99.90;;;;;;8308441;28;20040;-64
2021/06/05 04:43:35;;;;;;;;;;;16.00;99.90;;;;;;8308710;28;19909;-64
2021/06/05 04:47:35;;;;;;;;;;;16.00;99.90;;;;;;8325740;28;19913;-64
2021/06/05 04:51:37;;;;;;;;;;;16.10;99.90;;;;;;8325799;28;20295;-64
2021/06/05 04:55:38;;;;;;;;;;;16.20;99.90;;;;;;8341727;28;19931;-64
2021/06/05 04:59:38;;;;;;;;;;;16.30;99.90;;;;;;8334064;28;19932;-64
2021/06/05 05:03:39;;;;;;;;;;;16.40;99.90;;;;;;8325974;28;19917;-66
2021/06/05 05:07:39;;;;;;;;;;;16.40;99.90;;;;;;8307212;28;20159;-66
2021/06/05 05:11:40;;;;;;;;;;;16.40;99.90;;;;;;8325069;28;20367;-66
2021/06/05 05:15:41;;;;;;;;;;;16.40;99.90;;;;;;8338275;28;20433;-66
2021/06/05 05:19:41;;;;;;;;;;;16.60;99.90;;;;;;8340426;28;19980;-65
2021/06/05 05:23:42;;;;;;;;;;;16.60;99.90;;;;;;8327808;28;20589;-65
2021/06/05 05:27:43;;;;;;;;;;;16.70;99.90;;;;;;8320648;28;19913;-65
2021/06/05 05:31:43;;;;;;;;;;;16.60;99.90;;;;;;8338400;28;19909;-66
2021/06/05 05:35:44;;;;;;;;;;;16.40;99.90;;;;;;8348420;28;19913;-65
2021/06/05 05:39:45;;;;;;;;;;;16.50;99.90;;;;;;8346573;28;19921;-65
2021/06/05 05:43:45;;;;;;;;;;;16.40;99.90;;;;;;8354968;28;19967;-65
2021/06/05 05:47:46;;;;;;;;;;;16.40;99.90;;;;;;8364706;28;19913;-65
2021/06/05 05:51:46;;;;;;;;;;;16.30;99.90;;;;;;8363709;28;20000;-65
2021/06/05 05:55:47;;;;;;;;;;;15.90;99.90;;;;;;8345107;28;19909;-65
2021/06/05 05:59:47;;;;;;;;;;;16.10;99.90;;;;;;8342568;28;20360;-65
2021/06/05 06:03:48;;;;;;;;;;;16.00;99.90;;;;;;8331203;28;20433;-65
2021/06/05 06:07:49;;;;;;;;;;;16.00;99.90;;;;;;8331014;28;19929;-66
2021/06/05 06:11:49;;;;;;;;;;;16.00;99.90;;;;;;8358310;28;19913;-65
2021/06/05 06:15:50;;;;;;;;;;;16.40;99.90;;;;;;8363420;28;19962;-62
2021/06/05 06:19:51;;;;;;;;;;;16.30;99.90;;;;;;8357729;28;19948;-63
2021/06/05 06:23:51;;;;;;;;;;;16.50;99.90;;;;;;8345872;28;19931;-63
2021/06/05 06:27:52;;;;;;;;;;;16.60;99.90;;;;;;8351675;28;19956;-63
2021/06/05 06:31:53;;;;;;;;;;;16.70;99.90;;;;;;8343920;28;20456;-62
2021/06/05 06:35:53;;;;;;;;;;;16.80;99.90;;;;;;8350609;28;19975;-63
2021/06/05 06:39:54;;;;;;;;;;;17.20;99.90;;;;;;8351125;28;19917;-63
2021/06/05 06:43:55;;;;;;;;;;;17.20;99.90;;;;;;8347069;28;19937;-62
2021/06/05 06:47:56;;;;;;;;;;;17.20;99.90;;;;;;8344224;28;20322;-63
2021/06/05 06:51:56;;;;;;;;;;;17.10;99.90;;;;;;8344787;28;19941;-62
2021/06/05 06:55:57;;;;;;;;;;;17.10;99.90;;;;;;8339534;28;19964;-63
2021/06/05 06:59:57;;;;;;;;;;;17.00;99.90;;;;;;8333556;28;19917;-62
2021/06/05 07:03:58;;;;;;;;;;;17.00;99.90;;;;;;8343374;28;19917;-62
2021/06/05 07:08:06;;;;;;;;;;;17.30;99.90;;;;;;8345573;28;19927;-62
2021/06/05 07:12:06;;;;;;;;;;;17.10;99.90;;;;;;8345800;28;19962;-63
2021/06/05 07:16:08;;;;;;;;;;;17.20;99.90;;;;;;8328475;28;19913;-62
2021/06/05 07:20:08;;;;;;;;;;;17.20;99.90;;;;;;8327853;28;19913;-63
2021/06/05 07:24:09;;;;;;;;;;;17.10;99.90;;;;;;8329257;28;19917;-62
2021/06/05 07:28:23;;;;;;;;;;;17.50;99.90;;;;;;8329353;28;19909;-62
2021/06/05 07:32:23;;;;;;;;;;;17.40;99.90;;;;;;8329180;28;20107;-62
2021/06/05 07:36:28;;;;;;;;;;;17.20;99.90;;;;;;8314365;28;20367;-63
2021/06/05 07:40:28;;;;;;;;;;;17.90;99.90;;;;;;8330210;28;19924;-63
2021/06/05 07:44:30;;;;;;;;;;;18.30;99.90;;;;;;8334732;28;19920;-63
2021/06/05 07:48:31;;;;;;;;;;;18.70;99.90;;;;;;8333338;28;19928;-66
2021/06/05 07:52:31;;;;;;;;;;;19.10;99.90;;;;;;8360179;28;19945;-67
2021/06/05 07:56:32;;;;;;;;;;;19.20;99.90;;;;;;8339896;28;20375;-63
2021/06/05 08:00:34;;;;;;;;;;;19.30;99.90;;;;;;8334115;28;19917;-64
2021/06/05 08:04:34;;;;;;;;;;;19.50;99.90;;;;;;8338638;28;19913;-63
2021/06/05 08:08:35;;;;;;;;;;;19.30;99.90;;;;;;8332948;28;19917;-63
2021/06/05 08:12:35;;;;;;;;;;;19.00;99.90;;;;;;8319421;28;19948;-63
2021/06/05 08:16:37;;;;;;;;;;;19.00;99.90;;;;;;8329570;28;20299;-63
2021/06/05 08:20:40;;;;;;;;;;;18.80;99.90;;;;;;8345629;28;19970;-63
2021/06/05 08:24:41;;;;;;;;;;;18.60;99.90;;;;;;8346972;28;19917;-63
2021/06/05 08:28:41;;;;;;;;;;;18.50;99.90;;;;;;8324730;28;19917;-64
2021/06/05 08:32:42;;;;;;;;;;;18.40;99.90;;;;;;8322010;28;19960;-64
2021/06/05 08:36:43;;;;;;;;;;;18.60;99.90;;;;;;8342045;28;19955;-64
2021/06/05 08:40:43;;;;;;;;;;;18.50;99.90;;;;;;8323520;28;19920;-65
2021/06/05 08:44:46;;;;;;;;;;;18.50;99.90;;;;;;8341699;28;20339;-65
2021/06/05 08:48:47;;;;;;;;;;;18.60;99.90;;;;;;8341753;28;19909;-64
2021/06/05 08:52:57;;;;;;;;;;;18.50;99.90;;;;;;8324159;28;20551;-64
2021/06/05 08:57:00;;;;;;;;;;;18.30;99.90;;;;;;8334914;28;19917;-64
2021/06/05 09:01:13;;;;;;;;;;;18.10;99.90;;;;;;8341096;28;19917;-64
2021/06/05 09:05:15;;;;;;;;;;;18.00;99.90;;;;;;8319585;28;19917;-63
2021/06/05 09:09:18;;;;;;;;;;;17.80;99.90;;;;;;8341544;28;19919;-64
2021/06/05 09:13:19;;;;;;;;;;;17.80;99.90;;;;;;8323497;28;19916;-64
2021/06/05 09:17:21;;;;;;;;;;;18.00;99.90;;;;;;8322751;28;19912;-64
2021/06/05 09:21:24;;;;;;;;;;;17.90;99.90;;;;;;8340945;28;19913;-63
2021/06/05 09:25:27;;;;;;;;;;;18.00;99.90;;;;;;8341040;28;19920;-63
2021/06/05 09:29:29;;;;;;;;;;;18.00;99.90;;;;;;8339946;28;19913;-63
2021/06/05 09:33:31;;;;;;;;;;;18.20;99.90;;;;;;8343249;28;19952;-64
2021/06/05 09:37:37;;;;;;;;;;;18.40;99.90;;;;;;8338667;28;19913;-63
2021/06/05 09:41:47;;;;;;;;;;;18.80;99.90;;;;;;8343061;28;19913;-64
2021/06/05 09:46:03;;;;;;;;;;;19.30;99.90;;;;;;8339877;28;19913;-64
2021/06/05 09:50:16;;;;;;;;;;;19.70;99.90;;;;;;8339450;28;20040;-63
2021/06/05 09:54:38;;;;;;;;;;;20.00;99.90;;;;;;8309379;28;20642;-64
2021/06/05 09:58:44;;;;;;;;;;;20.30;99.90;;;;;;8310146;28;20342;-64
2021/06/05 10:40:12;;;;;;;;;;;20.80;99.90;;;;;;8323908;28;19932;-62
2021/06/05 10:44:13;;;;;;;;;;;20.90;99.90;;;;;;8333111;28;20387;-62
2021/06/05 10:48:33;;;;;;;;;;;21.50;99.90;;;;;;8345640;28;20011;-62
2021/06/05 10:52:44;;;;;;;;;;;20.60;99.90;;;;;;8318939;28;20062;-61
2021/06/05 10:57:00;;;;;;;;;;;20.40;99.90;;;;;;8313109;28;19913;-61
2021/06/05 11:01:03;;;;;;;;;;;20.40;99.90;;;;;;8304607;28;20437;-61
2021/06/05 11:05:27;;;;;;;;;;;20.00;99.90;;;;;;8313756;28;19917;-62
2021/06/05 11:09:31;;;;;;;;;;;20.30;99.90;;;;;;8277584;28;19914;-61
2021/06/05 11:13:31;;;;;;;;;;;20.30;99.90;;;;;;8318555;28;19921;-63
2021/06/05 11:17:39;;;;;;;;;;;20.00;99.90;;;;;;8294075;28;19917;-61
2021/06/05 11:21:44;;;;;;;;;;;20.00;99.90;;;;;;8307106;28;19971;-62
2021/06/05 11:25:48;;;;;;;;;;;20.10;99.90;;;;;;8314220;28;19920;-64
2021/06/05 11:29:51;;;;;;;;;;;20.30;99.90;;;;;;8312124;28;19917;-63
2021/06/05 11:33:51;;;;;;;;;;;20.50;99.90;;;;;;8312697;28;19914;-63
2021/06/05 11:37:53;;;;;;;;;;;21.00;99.90;;;;;;8307361;28;20486;-63
2021/06/05 11:41:55;;;;;;;;;;;21.00;99.90;;;;;;8299997;28;20024;-64
2021/06/05 11:46:09;;;;;;;;;;;21.20;99.90;;;;;;8291739;28;19924;-63
2021/06/05 11:50:13;;;;;;;;;;;21.00;99.90;;;;;;8318719;28;20012;-63
2021/06/05 11:54:18;;;;;;;;;;;21.30;99.90;;;;;;8324817;28;19913;-64
2021/06/05 11:58:19;;;;;;;;;;;21.40;99.90;;;;;;8325814;28;19952;-64
2021/06/05 12:02:23;;;;;;;;;;;21.70;99.90;;;;;;8318025;28;19925;-63
2021/06/05 12:06:26;;;;;;;;;;;22.20;99.90;;;;;;8326495;28;19939;-64
2021/06/05 12:10:36;;;;;;;;;;;23.20;99.90;;;;;;8327382;28;19909;-63
2021/06/05 12:18:45;;;;;;;;;;;23.80;99.90;;;;;;8313706;28;19992;-64
2021/06/05 12:22:47;;;;;;;;;;;23.20;99.90;;;;;;8317908;28;19956;-63
2021/06/05 12:26:50;;;;;;;;;;;23.40;99.90;;;;;;8323215;28;20295;-63
2021/06/05 12:30:51;;;;;;;;;;;23.50;99.90;;;;;;8321398;28;19913;-63
2021/06/05 12:34:52;;;;;;;;;;;23.60;99.90;;;;;;8303123;28;19917;-64
2021/06/05 12:38:57;;;;;;;;;;;24.50;99.90;;;;;;8292369;28;19957;-64
2021/06/05 12:42:58;;;;;;;;;;;24.60;99.90;;;;;;8312505;28;20295;-64
2021/06/05 12:47:02;;;;;;;;;;;25.30;99.90;;;;;;8301348;28;20379;-66
2021/06/05 12:51:07;;;;;;;;;;;25.80;99.90;;;;;;8325333;28;20364;-66
2021/06/05 12:55:13;;;;;;;;;;;28.00;99.90;;;;;;8322214;28;19910;-66
2021/06/05 12:59:15;;;;;;;;;;;29.00;99.90;;;;;;8323932;28;19921;-66
2021/06/05 13:03:15;;;;;;;;;;;27.90;99.90;;;;;;8320699;28;19914;-67
2021/06/05 13:07:29;;;;;;;;;;;28.00;99.90;;;;;;8303531;28;19960;-67
2021/06/05 13:11:38;;;;;;;;;;;28.50;99.90;;;;;;8303763;28;20303;-66
2021/06/05 13:15:44;;;;;;;;;;;27.60;99.90;;;;;;8280561;28;20318;-66
2021/06/05 13:19:45;;;;;;;;;;;25.60;99.90;;;;;;8304036;28;19941;-66
2021/06/05 13:23:46;;;;;;;;;;;24.30;99.90;;;;;;8280473;28;20410;-66
2021/06/05 13:27:59;;;;;;;;;;;23.20;99.90;;;;;;8306237;28;19960;-66
2021/06/05 13:32:01;;;;;;;;;;;22.90;99.90;;;;;;8308062;28;19918;-66
2021/06/05 13:36:21;;;;;;;;;;;22.70;99.90;;;;;;8294214;28;20287;-66
2021/06/05 13:40:22;;;;;;;;;;;22.70;99.90;;;;;;8290866;28;19917;-66
2021/06/05 13:44:22;;;;;;;;;;;22.80;99.90;;;;;;8310492;28;20012;-65
2021/06/05 13:48:23;;;;;;;;;;;22.80;99.90;;;;;;8303527;28;20351;-64
2021/06/05 13:52:28;;;;;;;;;;;22.30;99.90;;;;;;8303258;28;19914;-63
2021/06/05 13:56:30;;;;;;;;;;;21.80;99.90;;;;;;8285371;28;19913;-63
2021/06/05 14:00:30;;;;;;;;;;;20.80;99.90;;;;;;8282749;28;19959;-64
2021/06/05 14:04:31;;;;;;;;;;;20.20;99.90;;;;;;8303760;28;19910;-64
2021/06/05 14:08:31;;;;;;;;;;;19.60;99.90;;;;;;8329023;28;19967;-64
2021/06/05 14:12:33;;;;;;;;;;;19.30;99.90;;;;;;8320586;28;19924;-63
2021/06/05 14:16:33;;;;;;;;;;;18.80;99.90;;;;;;8331220;28;20375;-63
2021/06/05 14:20:35;;;;;;;;;;;18.20;99.90;;;;;;8329951;28;19924;-64
2021/06/05 14:24:36;;;;;;;;;;;17.80;99.90;;;;;;8321944;28;20262;-63
2021/06/05 14:28:38;;;;;;;;;;;17.70;99.90;;;;;;8329145;28;19909;-63
2021/06/05 14:32:38;;;;;;;;;;;18.10;99.90;;;;;;8305418;28;19929;-64
2021/06/05 14:36:39;;;;;;;;;;;18.30;99.90;;;;;;8328784;28;19909;-64
2021/06/05 14:40:39;;;;;;;;;;;18.30;99.90;;;;;;8327703;28;19917;-64
2021/06/05 14:44:40;;;;;;;;;;;18.30;99.90;;;;;;8300178;28;19925;-64
2021/06/05 14:48:40;;;;;;;;;;;18.40;99.90;;;;;;8327543;28;19920;-63
2021/06/05 14:52:42;;;;;;;;;;;18.70;99.90;;;;;;8320666;28;19920;-64
2021/06/05 14:56:43;;;;;;;;;;;19.30;99.90;;;;;;8325967;28;19913;-64
2021/06/05 15:00:43;;;;;;;;;;;19.30;99.90;;;;;;8326178;28;19975;-63
2021/06/05 15:04:48;;;;;;;;;;;19.20;99.90;;;;;;8319553;28;20528;-64
2021/06/05 15:08:52;;;;;;;;;;;19.10;99.90;;;;;;8303931;28;20401;-63
2021/06/05 15:12:52;;;;;;;;;;;19.00;99.90;;;;;;8320911;28;19921;-63
2021/06/05 15:16:53;;;;;;;;;;;18.70;99.90;;;;;;8311362;28;19920;-64
2021/06/05 15:20:53;;;;;;;;;;;18.50;99.90;;;;;;8317052;28;19980;-63
2021/06/05 15:24:54;;;;;;;;;;;18.30;99.90;;;;;;8307810;28;19921;-64
2021/06/05 15:28:54;;;;;;;;;;;17.90;99.90;;;;;;8337223;28;19916;-64
2021/06/05 15:32:55;;;;;;;;;;;17.70;99.90;;;;;;8323015;28;20387;-64
2021/06/05 15:36:56;;;;;;;;;;;17.60;99.90;;;;;;8319872;28;20383;-64
2021/06/05 15:40:57;;;;;;;;;;;17.40;99.90;;;;;;8322936;28;19925;-64
2021/06/05 15:44:57;;;;;;;;;;;17.20;99.90;;;;;;8313592;28;19913;-64
2021/06/05 15:48:58;;;;;;;;;;;17.00;99.90;;;;;;8324140;28;19913;-63
2021/06/05 15:52:58;;;;;;;;;;;16.90;99.90;;;;;;8319831;28;19942;-63
2021/06/05 15:56:59;;;;;;;;;;;16.80;99.90;;;;;;8332821;28;19960;-64
2021/06/05 16:01:00;;;;;;;;;;;16.60;99.90;;;;;;8342524;28;19936;-66
2021/06/05 16:05:01;;;;;;;;;;;16.40;99.90;;;;;;8323799;28;19921;-64
2021/06/05 16:09:03;;;;;;;;;;;16.40;99.90;;;;;;8318205;28;19959;-64
2021/06/05 16:13:05;;;;;;;;;;;16.20;99.90;;;;;;8302369;28;19954;-64
2021/06/05 16:17:05;;;;;;;;;;;16.10;99.90;;;;;;8319425;28;19916;-63
2021/06/05 16:21:08;;;;;;;;;;;16.00;99.90;;;;;;8333874;28;19939;-64
2021/06/05 16:25:09;;;;;;;;;;;15.80;99.90;;;;;;8326264;28;19999;-63
2021/06/05 16:29:09;;;;;;;;;;;15.70;99.90;;;;;;8320761;28;19913;-63
2021/06/05 16:33:11;;;;;;;;;;;15.50;99.90;;;;;;8307672;28;19914;-64
2021/06/05 16:37:11;;;;;;;;;;;15.50;99.90;;;;;;8300577;28;19991;-64
2021/06/05 16:41:12;;;;;;;;;;;15.50;99.90;;;;;;8284155;28;20008;-64
2021/06/05 16:45:14;;;;;;;;;;;15.50;99.90;;;;;;8312491;28;19920;-63
2021/06/05 16:49:14;;;;;;;;;;;15.50;99.90;;;;;;8305285;28;19925;-64
2021/06/05 16:53:16;;;;;;;;;;;15.50;99.90;;;;;;8305534;28;19924;-64
2021/06/05 16:57:16;;;;;;;;;;;15.40;99.90;;;;;;8291173;28;20133;-63
2021/06/05 17:01:19;;;;;;;;;;;15.30;99.90;;;;;;8286459;28;19980;-65
2021/06/05 17:05:20;;;;;;;;;;;15.20;99.90;;;;;;8298898;28;19917;-64
2021/06/05 17:09:22;;;;;;;;;;;15.20;99.90;;;;;;8311603;28;20363;-64
2021/06/05 17:13:23;;;;;;;;;;;15.20;99.90;;;;;;8298645;28;19917;-63
2021/06/05 17:17:24;;;;;;;;;;;15.20;99.90;;;;;;8302407;28;20417;-63
2021/06/05 17:21:25;;;;;;;;;;;15.20;99.90;;;;;;8323088;28;19925;-64
2021/06/05 17:25:28;;;;;;;;;;;15.10;99.90;;;;;;8319800;28;19936;-64
2021/06/05 17:29:29;;;;;;;;;;;15.00;99.90;;;;;;8319029;28;19917;-64
2021/06/05 17:33:30;;;;;;;;;;;14.90;99.90;;;;;;8313849;28;19925;-64
2021/06/05 17:37:31;;;;;;;;;;;14.80;99.90;;;;;;8319748;28;19925;-64
2021/06/05 17:41:31;;;;;;;;;;;14.70;99.90;;;;;;8318659;28;19920;-64
2021/06/05 17:45:35;;;;;;;;;;;14.70;99.90;;;;;;8320456;28;20044;-64
2021/06/05 17:49:36;;;;;;;;;;;14.60;99.90;;;;;;8320583;28;20494;-65
2021/06/05 17:53:38;;;;;;;;;;;14.60;99.90;;;;;;8319680;28;19924;-64
2021/06/05 17:57:38;;;;;;;;;;;14.60;99.90;;;;;;8295929;28;19920;-65
2021/06/05 18:01:41;;;;;;;;;;;14.60;99.90;;;;;;8320439;28;19926;-65
2021/06/05 18:05:43;;;;;;;;;;;14.60;99.90;;;;;;8317516;28;19939;-65
2021/06/05 18:09:43;;;;;;;;;;;14.60;99.90;;;;;;8287806;28;19964;-65
2021/06/05 18:13:44;;;;;;;;;;;14.60;99.90;;;;;;8297947;28;19913;-67
2021/06/05 18:17:45;;;;;;;;;;;14.70;99.90;;;;;;8303035;28;19928;-65
2021/06/05 18:21:46;;;;;;;;;;;14.60;99.90;;;;;;8310314;28;19918;-65
2021/06/05 18:25:47;;;;;;;;;;;14.60;99.90;;;;;;8302707;28;20003;-65
2021/06/05 18:29:47;;;;;;;;;;;14.60;99.90;;;;;;8310959;28;19921;-65
2021/06/05 18:33:50;;;;;;;;;;;14.70;99.90;;;;;;8303674;28;19913;-65
2021/06/05 18:37:51;;;;;;;;;;;14.70;99.90;;;;;;8327250;28;19909;-65
2021/06/05 18:41:53;;;;;;;;;;;14.60;99.90;;;;;;8329512;28;19924;-65
2021/06/05 18:45:54;;;;;;;;;;;14.60;99.90;;;;;;8309752;28;20372;-65
2021/06/05 18:49:57;;;;;;;;;;;14.60;99.90;;;;;;8301544;28;19917;-65
2021/06/05 18:53:57;;;;;;;;;;;14.50;99.90;;;;;;8296855;28;19920;-65
2021/06/05 18:58:00;;;;;;;;;;;14.50;99.90;;;;;;8296255;28;19921;-65
2021/06/05 19:02:02;;;;;;;;;;;14.50;99.90;;;;;;8310102;28;20398;-65
2021/06/05 19:06:04;;;;;;;;;;;14.40;99.90;;;;;;8301143;28;19992;-65
2021/06/05 19:10:05;;;;;;;;;;;14.30;99.90;;;;;;8293377;28;19960;-65
2021/06/05 19:14:05;;;;;;;;;;;14.40;99.90;;;;;;8290855;28;20398;-65
2021/06/05 19:18:08;;;;;;;;;;;14.40;99.90;;;;;;8279974;28;19917;-65
2021/06/05 19:22:08;;;;;;;;;;;14.30;99.90;;;;;;8293243;28;19929;-65
2021/06/05 19:26:12;;;;;;;;;;;14.30;99.90;;;;;;8291426;28;19972;-65
2021/06/05 19:30:16;;;;;;;;;;;14.30;99.90;;;;;;8301976;28;20011;-65
2021/06/05 19:34:16;;;;;;;;;;;14.30;99.90;;;;;;8295558;28;19909;-65
2021/06/05 19:38:17;;;;;;;;;;;14.20;99.90;;;;;;8311130;28;19986;-65
2021/06/05 19:42:17;;;;;;;;;;;14.30;99.90;;;;;;8294717;28;19921;-65
2021/06/05 19:46:19;;;;;;;;;;;14.20;99.90;;;;;;8300319;28;19921;-64
2021/06/05 19:50:20;;;;;;;;;;;14.10;99.90;;;;;;8290371;28;19987;-64
2021/06/05 19:54:29;;;;;;;;;;;14.00;99.90;;;;;;8291511;28;19913;-65
2021/06/05 19:58:31;;;;;;;;;;;14.00;99.90;;;;;;8292380;28;19963;-65
2021/06/05 20:02:31;;;;;;;;;;;14.00;99.90;;;;;;8292503;28;19920;-65
2021/06/05 20:06:32;;;;;;;;;;;13.90;99.90;;;;;;8297999;28;19948;-65
2021/06/05 20:10:34;;;;;;;;;;;13.90;99.90;;;;;;8290500;28;22353;-65
2021/06/05 20:14:34;;;;;;;;;;;13.90;99.90;;;;;;8273604;28;19909;-64
2021/06/05 20:18:35;;;;;;;;;;;13.90;99.90;;;;;;8290679;28;19951;-64
2021/06/05 20:22:36;;;;;;;;;;;14.00;99.90;;;;;;8291587;28;19943;-64
2021/06/05 20:26:37;;;;;;;;;;;14.00;99.90;;;;;;8312411;28;19913;-65
2021/06/05 20:30:37;;;;;;;;;;;14.00;99.90;;;;;;8308629;28;19921;-64
2021/06/05 20:34:38;;;;;;;;;;;14.00;99.90;;;;;;8285747;28;19913;-65
2021/06/05 20:38:39;;;;;;;;;;;14.00;99.90;;;;;;8289083;28;19923;-65
2021/06/05 20:42:40;;;;;;;;;;;14.00;99.90;;;;;;8291974;28;19917;-64
2021/06/05 20:46:43;;;;;;;;;;;14.00;99.90;;;;;;8272163;28;19920;-64
2021/06/05 20:50:43;;;;;;;;;;;14.00;99.90;;;;;;8294214;28;19948;-64
2021/06/05 20:54:44;;;;;;;;;;;14.00;99.90;;;;;;8290729;28;19940;-64
2021/06/05 20:58:45;;;;;;;;;;;14.00;99.90;;;;;;8287656;28;19917;-64
2021/06/05 21:02:46;;;;;;;;;;;14.10;99.90;;;;;;8297804;28;19920;-64
2021/06/05 21:06:46;;;;;;;;;;;14.00;99.90;;;;;;8324010;28;20326;-64
2021/06/05 21:10:46;;;;;;;;;;;14.00;99.90;;;;;;8315544;28;20296;-64
2021/06/05 21:14:47;;;;;;;;;;;13.90;99.90;;;;;;8315819;28;19917;-64
2021/06/05 21:18:47;;;;;;;;;;;13.90;99.90;;;;;;8290487;28;19920;-64
2021/06/05 21:22:48;;;;;;;;;;;13.90;99.90;;;;;;8289891;28;19929;-64
2021/06/05 21:26:49;;;;;;;;;;;13.80;99.90;;;;;;8288376;28;20408;-64
2021/06/05 21:30:52;;;;;;;;;;;13.80;99.90;;;;;;8320135;28;20474;-64
2021/06/05 21:34:55;;;;;;;;;;;13.80;99.90;;;;;;8317775;28;20296;-64
2021/06/05 21:38:55;;;;;;;;;;;13.80;99.90;;;;;;8302822;28;20450;-64
2021/06/05 21:42:56;;;;;;;;;;;13.90;99.90;;;;;;8315191;28;19917;-64
2021/06/05 21:46:56;;;;;;;;;;;13.80;99.90;;;;;;8319664;28;19913;-65
2021/06/05 21:51:07;;;;;;;;;;;13.70;99.90;;;;;;8313383;28;19998;-65
2021/06/05 21:55:09;;;;;;;;;;;13.70;99.90;;;;;;8309912;28;19910;-65
2021/06/05 21:59:09;;;;;;;;;;;13.60;99.90;;;;;;8306384;28;19913;-64
2021/06/05 22:03:12;;;;;;;;;;;13.60;99.90;;;;;;8311984;28;20521;-65
2021/06/05 22:07:13;;;;;;;;;;;13.60;99.90;;;;;;8323846;28;19952;-64
2021/06/05 22:11:22;;;;;;;;;;;13.60;99.90;;;;;;8324323;28;19948;-64
2021/06/05 22:15:23;;;;;;;;;;;13.60;99.90;;;;;;8327044;28;19917;-64
2021/06/05 22:19:23;;;;;;;;;;;13.70;99.90;;;;;;8293229;28;20470;-64
2021/06/05 22:23:24;;;;;;;;;;;13.60;99.90;;;;;;8300561;28;19913;-64
2021/06/05 22:27:36;;;;;;;;;;;13.60;99.90;;;;;;8301450;28;19940;-64
2021/06/05 22:31:36;;;;;;;;;;;13.50;99.90;;;;;;8300317;28;19909;-64
2021/06/05 22:35:37;;;;;;;;;;;13.50;99.90;;;;;;8328946;28;20375;-64
2021/06/05 22:39:38;;;;;;;;;;;13.40;99.90;;;;;;8319423;28;19931;-64
2021/06/05 22:43:39;;;;;;;;;;;13.40;99.90;;;;;;8326447;28;19959;-64
2021/06/05 22:47:39;;;;;;;;;;;13.30;99.90;;;;;;8328177;28;20374;-64
2021/06/05 22:51:41;;;;;;;;;;;13.40;99.90;;;;;;8328860;28;19913;-64
2021/06/05 22:55:43;;;;;;;;;;;13.50;99.90;;;;;;8327861;28;19959;-64
2021/06/05 22:59:44;;;;;;;;;;;13.50;99.90;;;;;;8323293;28;20391;-64
2021/06/05 23:03:45;;;;;;;;;;;13.50;99.90;;;;;;8328784;28;19920;-64
2021/06/05 23:07:45;;;;;;;;;;;13.60;99.90;;;;;;8329254;28;19943;-64
2021/06/05 23:11:47;;;;;;;;;;;13.60;99.90;;;;;;8313210;28;20330;-64
2021/06/05 23:15:48;;;;;;;;;;;13.60;99.90;;;;;;8328618;28;20008;-64
2021/06/05 23:19:48;;;;;;;;;;;13.70;99.90;;;;;;8329850;28;19917;-63
2021/06/05 23:23:49;;;;;;;;;;;13.60;99.90;;;;;;8326598;28;19909;-62
2021/06/05 23:27:49;;;;;;;;;;;13.60;99.90;;;;;;8329250;28;19953;-63
2021/06/05 23:31:50;;;;;;;;;;;13.70;99.90;;;;;;8329650;28;19909;-62
2021/06/05 23:35:54;;;;;;;;;;;13.60;99.90;;;;;;8329506;28;19917;-63
2021/06/05 23:39:54;;;;;;;;;;;13.60;99.90;;;;;;8329196;28;19921;-62
2021/06/05 23:43:55;;;;;;;;;;;13.60;99.90;;;;;;8328957;28;19963;-63
2021/06/05 23:47:56;;;;;;;;;;;13.50;99.90;;;;;;8328697;28;19998;-63
2021/06/05 23:51:56;;;;;;;;;;;13.40;99.90;;;;;;8310456;28;19971;-63
2021/06/05 23:55:58;;;;;;;;;;;13.40;99.90;;;;;;8310159;28;19943;-63
2021/06/05 23:59:59;;;;;;;;;;;13.50;99.90;;;;;;8310117;28;19951;-62
